createdAt,value
2017-08-09T00:02:25.470Z,1.00
2017-08-09T00:04:53.023Z,1.03
2017-08-09T00:07:20.538Z,1.20
2017-08-09T00:09:48.080Z,1.07
2017-08-09T00:12:15.605Z,1.00
2017-08-09T00:14:43.172Z,1.10
2017-08-09T00:17:10.689Z,1.10
2017-08-09T00:19:38.250Z,1.10
2017-08-09T00:22:05.773Z,1.50
2017-08-09T00:24:33.318Z,1.30
2017-08-09T00:27:00.834Z,1.20
2017-08-09T00:29:28.389Z,1.07
2017-08-09T00:31:55.902Z,0.87
2017-08-09T00:34:23.423Z,1.00
2017-08-09T00:36:50.970Z,1.13
2017-08-09T00:39:18.482Z,1.10
2017-08-09T00:41:46.025Z,1.30
2017-08-09T00:44:13.550Z,1.17
2017-08-09T00:46:41.133Z,1.10
2017-08-09T00:49:08.654Z,1.10
2017-08-09T00:51:36.193Z,0.80
2017-08-09T00:54:03.708Z,1.47
2017-08-09T00:56:31.254Z,1.30
2017-08-09T00:58:58.771Z,1.07
2017-08-09T01:01:26.340Z,1.10
2017-08-09T01:03:54.479Z,1.20
2017-08-09T01:06:22.038Z,1.47
2017-08-09T01:08:49.580Z,1.40
2017-08-09T01:11:17.130Z,1.40
2017-08-09T01:13:44.661Z,1.27
2017-08-09T01:16:12.213Z,1.50
2017-08-09T01:18:39.738Z,1.40
2017-08-09T01:21:07.307Z,1.20
2017-08-09T01:23:34.826Z,1.10
2017-08-09T01:26:02.345Z,1.17
2017-08-09T01:28:29.893Z,1.10
2017-08-09T01:30:57.414Z,1.33
2017-08-09T01:33:24.997Z,1.17
2017-08-09T01:35:52.507Z,1.37
2017-08-09T01:38:20.058Z,1.80
2017-08-09T01:40:47.606Z,2.30
2017-08-09T01:43:15.154Z,1.30
2017-08-09T01:45:42.672Z,1.00
2017-08-09T01:48:10.222Z,1.20
2017-08-09T01:50:37.734Z,1.10
2017-08-09T01:53:05.309Z,1.23
2017-08-09T01:55:32.831Z,1.27
2017-08-09T01:58:00.346Z,1.30
2017-08-09T02:00:27.906Z,1.57
2017-08-09T02:02:55.510Z,1.73
2017-08-09T02:05:23.130Z,1.60
2017-08-09T02:07:50.654Z,1.73
2017-08-09T02:10:18.213Z,1.87
2017-08-09T02:12:45.733Z,1.33
2017-08-09T02:15:13.253Z,1.33
2017-08-09T02:17:40.810Z,1.57
2017-08-09T02:20:08.324Z,1.53
2017-08-09T02:22:35.878Z,1.67
2017-08-09T02:25:03.395Z,1.73
2017-08-09T02:27:30.949Z,1.53
2017-08-09T02:29:58.474Z,1.40
2017-08-09T02:32:26.029Z,1.40
2017-08-09T02:34:53.553Z,1.70
2017-08-09T02:37:21.247Z,1.60
2017-08-09T02:39:48.779Z,1.70
2017-08-09T02:42:16.299Z,1.33
2017-08-09T02:44:43.863Z,1.47
2017-08-09T02:47:11.614Z,1.17
2017-08-09T02:49:39.184Z,1.60
2017-08-09T02:52:06.702Z,1.40
2017-08-09T02:54:34.256Z,2.13
2017-08-09T02:57:01.771Z,1.40
2017-08-09T02:59:29.318Z,1.40
2017-08-09T03:01:56.840Z,1.33
2017-08-09T03:04:24.399Z,1.80
2017-08-09T03:06:51.929Z,1.73
2017-08-09T03:09:19.485Z,1.60
2017-08-09T03:11:47.009Z,1.63
2017-08-09T03:14:14.522Z,1.70
2017-08-09T03:16:42.073Z,2.17
2017-08-09T03:19:09.586Z,1.53
2017-08-09T03:21:37.157Z,1.90
2017-08-09T03:24:04.672Z,1.60
2017-08-09T03:26:32.218Z,1.83
2017-08-09T03:28:59.737Z,1.77
2017-08-09T03:31:27.284Z,1.50
2017-08-09T03:33:55.167Z,1.80
2017-08-09T03:36:22.716Z,1.67
2017-08-09T03:38:50.231Z,1.83
2017-08-09T03:41:17.789Z,5.23
2017-08-09T03:43:45.313Z,8.87
2017-08-09T03:46:12.865Z,11.87
2017-08-09T03:48:40.394Z,14.20
2017-08-09T03:51:07.949Z,13.93
2017-08-09T03:53:35.478Z,10.80
2017-08-09T03:56:02.996Z,9.23
2017-08-09T03:58:30.545Z,7.90
2017-08-09T04:00:58.066Z,7.47
2017-08-09T04:03:25.620Z,5.53
2017-08-09T04:05:53.145Z,5.67
2017-08-09T04:08:20.706Z,5.47
2017-08-09T04:10:48.221Z,4.87
2017-08-09T04:13:15.774Z,3.43
2017-08-09T04:15:43.325Z,2.77
2017-08-09T04:18:10.890Z,2.70
2017-08-09T04:20:38.409Z,2.73
2017-08-09T04:23:05.951Z,1.87
2017-08-09T04:25:33.464Z,2.50
2017-08-09T04:28:01.093Z,2.60
2017-08-09T04:30:28.613Z,2.73
2017-08-09T04:32:56.160Z,2.03
2017-08-09T04:35:23.676Z,1.90
2017-08-09T04:37:51.226Z,2.03
2017-08-09T04:40:18.785Z,2.40
2017-08-09T04:42:46.329Z,2.63
2017-08-09T04:45:13.848Z,6.90
2017-08-09T04:47:41.374Z,7.30
2017-08-09T04:50:08.919Z,4.30
2017-08-09T04:52:36.434Z,3.60
2017-08-09T04:55:03.986Z,3.23
2017-08-09T04:57:31.508Z,3.30
2017-08-09T04:59:59.063Z,2.50
2017-08-09T05:02:26.590Z,1.87
2017-08-09T05:04:54.133Z,2.43
2017-08-09T05:07:21.648Z,2.50
2017-08-09T05:09:49.245Z,1.83
2017-08-09T05:12:16.765Z,2.80
2017-08-09T05:14:44.308Z,2.50
2017-08-09T05:17:11.822Z,2.20
2017-08-09T05:19:39.376Z,2.40
2017-08-09T05:22:06.884Z,2.00
2017-08-09T05:24:34.475Z,1.97
2017-08-09T05:27:02.004Z,2.60
2017-08-09T05:29:29.578Z,2.10
2017-08-09T05:31:57.099Z,1.90
2017-08-09T05:34:24.624Z,1.80
2017-08-09T05:36:52.179Z,2.43
2017-08-09T05:39:19.697Z,2.33
2017-08-09T05:41:47.256Z,2.10
2017-08-09T05:44:14.783Z,1.47
2017-08-09T05:46:42.339Z,1.90
2017-08-09T05:49:09.860Z,1.73
2017-08-09T05:51:37.405Z,1.93
2017-08-09T05:54:04.918Z,2.07
2017-08-09T05:56:32.482Z,2.27
2017-08-09T05:58:59.995Z,1.80
2017-08-09T06:01:27.509Z,2.20
2017-08-09T06:03:55.512Z,1.87
2017-08-09T06:06:23.033Z,2.50
2017-08-09T06:08:50.582Z,1.90
2017-08-09T06:11:18.116Z,1.53
2017-08-09T06:13:45.665Z,1.83
2017-08-09T06:16:13.213Z,2.10
2017-08-09T06:18:40.788Z,1.90
2017-08-09T06:21:08.323Z,1.90
2017-08-09T06:23:35.883Z,1.37
2017-08-09T06:26:03.407Z,1.83
2017-08-09T06:28:30.973Z,1.90
2017-08-09T06:30:58.502Z,1.70
2017-08-09T06:33:26.050Z,1.50
2017-08-09T06:35:53.564Z,1.90
2017-08-09T06:38:21.122Z,1.50
2017-08-09T06:40:48.641Z,1.90
2017-08-09T06:43:16.184Z,2.07
2017-08-09T06:45:43.707Z,2.00
2017-08-09T06:48:11.276Z,1.87
2017-08-09T06:50:38.799Z,1.50
2017-08-09T06:53:06.342Z,1.50
2017-08-09T06:55:33.887Z,1.90
2017-08-09T06:58:01.413Z,2.30
2017-08-09T07:00:29.024Z,1.70
2017-08-09T07:02:56.549Z,1.70
2017-08-09T07:05:24.096Z,1.87
2017-08-09T07:07:51.622Z,1.53
2017-08-09T07:10:19.174Z,1.30
2017-08-09T07:12:46.721Z,1.80
2017-08-09T07:15:14.275Z,2.00
2017-08-09T07:17:41.806Z,1.63
2017-08-09T07:20:09.353Z,1.63
2017-08-09T07:22:36.886Z,1.60
2017-08-09T07:25:04.456Z,1.53
2017-08-09T07:27:32.006Z,1.47
2017-08-09T07:29:59.589Z,1.93
2017-08-09T07:32:27.108Z,1.63
2017-08-09T07:34:54.632Z,1.47
2017-08-09T07:37:22.184Z,1.70
2017-08-09T07:39:49.704Z,1.47
2017-08-09T07:42:17.254Z,1.23
2017-08-09T07:44:44.768Z,1.77
2017-08-09T07:47:12.321Z,1.50
2017-08-09T07:49:39.840Z,1.60
2017-08-09T07:52:07.460Z,1.90
2017-08-09T07:54:34.982Z,1.33
2017-08-09T07:57:02.543Z,1.47
2017-08-09T07:59:30.076Z,1.40
2017-08-09T08:01:57.636Z,1.40
2017-08-09T08:04:25.152Z,1.50
2017-08-09T08:06:52.718Z,1.53
2017-08-09T08:09:20.255Z,1.60
2017-08-09T08:11:47.814Z,1.67
2017-08-09T08:14:15.335Z,1.90
2017-08-09T08:16:42.903Z,1.60
2017-08-09T08:19:10.426Z,1.67
2017-08-09T08:21:37.993Z,1.40
2017-08-09T08:24:05.519Z,1.30
2017-08-09T08:26:33.041Z,1.77
2017-08-09T08:29:00.585Z,1.57
2017-08-09T08:31:28.096Z,1.70
2017-08-09T08:33:56.528Z,1.23
2017-08-09T08:36:24.046Z,1.43
2017-08-09T08:38:51.605Z,1.47
2017-08-09T08:41:19.122Z,1.77
2017-08-09T08:43:46.672Z,1.67
2017-08-09T08:46:14.183Z,1.57
2017-08-09T08:48:43.328Z,1.67
2017-08-09T08:51:12.397Z,1.43
2017-08-09T08:53:41.572Z,2.80
2017-08-09T08:56:09.494Z,1.57
2017-08-09T08:58:38.218Z,1.27
2017-08-09T09:01:07.310Z,1.50
2017-08-09T09:03:36.433Z,1.60
2017-08-09T09:06:05.342Z,1.50
2017-08-09T09:08:33.162Z,1.47
2017-08-09T09:11:02.168Z,1.47
2017-08-09T09:13:31.030Z,1.27
2017-08-09T09:16:00.014Z,1.50
2017-08-09T09:18:27.979Z,1.53
2017-08-09T09:20:56.014Z,1.20
2017-08-09T09:23:24.855Z,1.57
2017-08-09T09:25:52.675Z,1.30
2017-08-09T09:28:20.852Z,1.27
2017-08-09T09:30:49.253Z,1.43
2017-08-09T09:33:17.991Z,1.13
2017-08-09T09:35:45.667Z,1.33
2017-08-09T09:38:13.193Z,1.00
2017-08-09T09:40:40.750Z,1.57
2017-08-09T09:43:08.353Z,1.00
2017-08-09T09:45:35.961Z,1.17
2017-08-09T09:48:03.483Z,1.23
2017-08-09T09:50:31.038Z,1.50
2017-08-09T09:52:58.562Z,1.60
2017-08-09T09:55:26.126Z,1.40
2017-08-09T09:57:53.645Z,1.10
2017-08-09T10:00:21.271Z,1.23
2017-08-09T10:02:48.827Z,1.40
2017-08-09T10:05:16.353Z,1.13
2017-08-09T10:07:43.901Z,1.13
2017-08-09T10:10:11.451Z,1.20
2017-08-09T10:12:39.002Z,1.20
2017-08-09T10:15:06.520Z,1.07
2017-08-09T10:17:34.081Z,1.13
2017-08-09T10:20:01.603Z,1.30
2017-08-09T10:22:29.153Z,1.50
2017-08-09T10:24:56.678Z,1.10
2017-08-09T10:27:24.230Z,1.43
2017-08-09T10:29:51.745Z,1.30
2017-08-09T10:32:19.299Z,1.30
2017-08-09T10:34:46.824Z,1.40
2017-08-09T10:37:14.449Z,1.37
2017-08-09T10:39:41.965Z,1.30
2017-08-09T10:42:09.523Z,1.23
2017-08-09T10:44:37.047Z,1.07
2017-08-09T10:47:04.561Z,1.40
2017-08-09T10:49:32.157Z,1.60
2017-08-09T10:51:59.695Z,1.10
2017-08-09T10:54:27.253Z,1.23
2017-08-09T10:56:54.771Z,0.90
2017-08-09T10:59:22.398Z,1.30
2017-08-09T11:01:49.924Z,1.40
2017-08-09T11:04:17.472Z,1.20
2017-08-09T11:06:45.012Z,1.40
2017-08-09T11:09:12.566Z,1.13
2017-08-09T11:11:40.077Z,1.30
2017-08-09T11:14:07.642Z,1.43
2017-08-09T11:16:35.161Z,1.00
2017-08-09T11:19:02.721Z,1.30
2017-08-09T11:21:30.240Z,0.90
2017-08-09T11:23:57.830Z,1.37
2017-08-09T11:26:25.346Z,0.90
2017-08-09T11:28:52.868Z,1.00
2017-08-09T11:31:20.467Z,1.00
2017-08-09T11:33:48.003Z,1.50
2017-08-09T11:36:15.563Z,0.90
2017-08-09T11:38:43.081Z,1.17
2017-08-09T11:41:10.638Z,1.30
2017-08-09T11:43:38.165Z,0.90
2017-08-09T11:46:05.709Z,1.20
2017-08-09T11:48:33.221Z,1.03
2017-08-09T11:51:00.773Z,1.50
2017-08-09T11:53:28.300Z,1.20
2017-08-09T11:55:55.844Z,1.40
2017-08-09T11:58:23.376Z,0.90
2017-08-09T12:00:50.979Z,1.17
2017-08-09T12:03:18.503Z,1.10
2017-08-09T12:05:46.053Z,1.13
2017-08-09T12:08:13.569Z,1.00
2017-08-09T12:10:41.118Z,1.13
2017-08-09T12:13:08.632Z,1.30
2017-08-09T12:15:36.213Z,1.27
2017-08-09T12:18:03.795Z,1.00
2017-08-09T12:20:31.300Z,0.87
2017-08-09T12:22:58.848Z,1.40
2017-08-09T12:25:26.373Z,1.00
2017-08-09T12:27:53.931Z,1.27
2017-08-09T12:30:22.790Z,1.20
2017-08-09T12:32:50.569Z,0.90
2017-08-09T12:35:18.155Z,1.50
2017-08-09T12:37:45.939Z,1.37
2017-08-09T12:40:13.761Z,1.20
2017-08-09T12:42:42.141Z,1.20
2017-08-09T12:45:10.258Z,1.30
2017-08-09T12:47:38.227Z,1.00
2017-08-09T12:50:06.669Z,1.00
2017-08-09T12:52:35.204Z,1.37
2017-08-09T12:55:02.941Z,0.93
2017-08-09T12:57:30.954Z,1.13
2017-08-09T12:59:58.656Z,1.20
2017-08-09T13:02:26.430Z,1.07
2017-08-09T13:04:55.536Z,1.20
2017-08-09T13:07:23.274Z,1.10
2017-08-09T13:09:51.165Z,1.40
2017-08-09T13:12:18.752Z,1.40
2017-08-09T13:14:46.269Z,1.20
2017-08-09T13:17:13.786Z,1.00
2017-08-09T13:19:41.326Z,0.90
2017-08-09T13:22:08.852Z,1.10
2017-08-09T13:24:36.412Z,1.87
2017-08-09T13:27:03.940Z,1.10
2017-08-09T13:29:31.500Z,0.93
2017-08-09T13:31:59.026Z,0.90
2017-08-09T13:34:26.568Z,1.10
2017-08-09T13:36:54.122Z,0.80
2017-08-09T13:39:21.665Z,1.00
2017-08-09T13:41:49.181Z,1.00
2017-08-09T13:44:16.724Z,1.10
2017-08-09T13:46:44.254Z,1.83
2017-08-09T13:49:11.798Z,0.90
2017-08-09T13:51:39.337Z,0.97
2017-08-09T13:54:06.900Z,0.90
2017-08-09T13:56:34.417Z,1.13
2017-08-09T13:59:01.998Z,1.20
2017-08-09T14:01:29.524Z,1.13
2017-08-09T14:03:57.041Z,1.20
2017-08-09T14:06:24.592Z,0.90
2017-08-09T14:08:52.109Z,1.00
2017-08-09T14:11:19.670Z,1.10
2017-08-09T14:13:47.188Z,0.93
2017-08-09T14:16:14.738Z,0.87
2017-08-09T14:18:42.261Z,0.90
2017-08-09T14:21:09.808Z,1.07
2017-08-09T14:23:37.334Z,1.23
2017-08-09T14:26:04.884Z,1.00
2017-08-09T14:28:32.405Z,1.00
2017-08-09T14:30:59.953Z,1.20
2017-08-09T14:33:27.476Z,0.90
2017-08-09T14:35:55.039Z,0.80
2017-08-09T14:38:22.555Z,1.27
2017-08-09T14:40:50.134Z,1.20
2017-08-09T14:43:17.657Z,1.03
2017-08-09T14:45:45.206Z,0.90
2017-08-09T14:48:12.726Z,0.97
2017-08-09T14:50:40.244Z,1.07
2017-08-09T14:53:07.797Z,0.83
2017-08-09T14:55:35.312Z,0.97
2017-08-09T14:58:02.867Z,0.73
2017-08-09T15:00:30.384Z,1.00
2017-08-09T15:02:57.937Z,0.80
2017-08-09T15:05:25.469Z,1.10
2017-08-09T15:07:53.022Z,0.87
2017-08-09T15:10:20.532Z,1.20
2017-08-09T15:12:48.079Z,0.90
2017-08-09T15:15:15.591Z,0.90
2017-08-09T15:17:43.145Z,1.13
2017-08-09T15:20:10.674Z,1.27
2017-08-09T15:22:38.243Z,0.80
2017-08-09T15:25:05.761Z,1.00
2017-08-09T15:27:33.286Z,0.90
2017-08-09T15:30:01.211Z,1.10
2017-08-09T15:32:28.732Z,0.90
2017-08-09T15:34:56.278Z,0.77
2017-08-09T15:37:23.804Z,0.87
2017-08-09T15:39:51.357Z,1.00
2017-08-09T15:42:18.878Z,1.10
2017-08-09T15:44:46.438Z,1.00
2017-08-09T15:47:13.958Z,0.80
2017-08-09T15:49:41.521Z,0.80
2017-08-09T15:52:09.041Z,0.90
2017-08-09T15:54:36.589Z,1.20
2017-08-09T15:57:04.108Z,0.80
2017-08-09T15:59:31.659Z,0.90
2017-08-09T16:01:59.176Z,1.20
2017-08-09T16:04:26.755Z,0.80
2017-08-09T16:06:54.278Z,1.03
2017-08-09T16:09:21.791Z,0.80
2017-08-09T16:11:49.342Z,1.10
2017-08-09T16:14:16.869Z,1.10
2017-08-09T16:16:44.430Z,0.80
2017-08-09T16:19:11.947Z,0.93
2017-08-09T16:21:39.505Z,0.90
2017-08-09T16:24:07.025Z,1.37
2017-08-09T16:26:34.572Z,1.07
2017-08-09T16:29:02.094Z,0.90
2017-08-09T16:31:29.652Z,1.00
2017-08-09T16:33:57.170Z,0.80
2017-08-09T16:36:24.718Z,0.97
2017-08-09T16:38:52.241Z,1.00
2017-08-09T16:41:19.793Z,1.00
2017-08-09T16:43:47.309Z,0.70
2017-08-09T16:46:14.859Z,0.70
2017-08-09T16:48:42.373Z,1.00
2017-08-09T16:51:09.917Z,1.00
2017-08-09T16:53:37.434Z,0.97
2017-08-09T16:56:04.948Z,1.13
2017-08-09T16:58:32.492Z,1.00
2017-08-09T17:01:00.008Z,1.13
2017-08-09T17:03:27.557Z,1.20
2017-08-09T17:05:55.087Z,1.03
2017-08-09T17:08:22.638Z,0.87
2017-08-09T17:10:50.164Z,1.10
2017-08-09T17:13:17.745Z,0.90
2017-08-09T17:15:45.276Z,1.00
2017-08-09T17:18:12.825Z,1.20
2017-08-09T17:20:40.352Z,1.03
2017-08-09T17:23:07.911Z,1.10
2017-08-09T17:25:35.434Z,1.20
2017-08-09T17:28:02.989Z,0.97
2017-08-09T17:30:30.504Z,0.90
2017-08-09T17:32:58.056Z,1.33
2017-08-09T17:35:25.580Z,1.10
2017-08-09T17:37:53.133Z,1.13
2017-08-09T17:40:20.643Z,1.30
2017-08-09T17:42:48.215Z,1.37
2017-08-09T17:45:15.746Z,0.97
2017-08-09T17:47:43.268Z,1.17
2017-08-09T17:50:10.821Z,1.20
2017-08-09T17:52:38.341Z,1.00
2017-08-09T17:55:05.892Z,0.87
2017-08-09T17:57:33.411Z,1.17
2017-08-09T18:00:00.965Z,1.10
2017-08-09T18:02:28.476Z,1.13
2017-08-09T18:04:56.251Z,0.90
2017-08-09T18:07:24.133Z,1.10
2017-08-09T18:09:51.882Z,1.23
2017-08-09T18:12:20.037Z,1.40
2017-08-09T18:14:47.724Z,1.23
2017-08-09T18:17:15.281Z,1.73
2017-08-09T18:19:42.864Z,1.10
2017-08-09T18:22:10.384Z,1.30
2017-08-09T18:24:37.940Z,1.23
2017-08-09T18:27:05.465Z,1.50
2017-08-09T18:29:33.042Z,1.43
2017-08-09T18:32:00.844Z,2.00
2017-08-09T18:34:28.381Z,1.70
2017-08-09T18:36:55.930Z,1.73
2017-08-09T18:39:23.444Z,1.47
2017-08-09T18:41:50.989Z,1.60
2017-08-09T18:44:18.506Z,1.60
2017-08-09T18:46:46.054Z,1.33
2017-08-09T18:49:13.570Z,1.87
2017-08-09T18:51:41.118Z,1.70
2017-08-09T18:54:08.633Z,2.57
2017-08-09T18:56:36.179Z,2.20
2017-08-09T18:59:03.693Z,1.90
2017-08-09T19:01:31.416Z,3.30
2017-08-09T19:03:58.979Z,2.00
2017-08-09T19:06:26.531Z,1.80
2017-08-09T19:08:54.051Z,2.73
2017-08-09T19:11:21.604Z,2.37
2017-08-09T19:13:49.123Z,2.10
2017-08-09T19:16:16.678Z,1.57
2017-08-09T19:18:44.199Z,1.50
2017-08-09T19:21:11.843Z,1.80
2017-08-09T19:23:39.436Z,2.20
2017-08-09T19:26:06.997Z,2.37
2017-08-09T19:28:34.548Z,2.03
2017-08-09T19:31:02.070Z,2.13
2017-08-09T19:33:29.697Z,2.10
2017-08-09T19:35:57.330Z,1.87
2017-08-09T19:38:24.886Z,1.83
2017-08-09T19:40:52.403Z,2.10
2017-08-09T19:43:19.957Z,2.20
2017-08-09T19:45:47.477Z,2.00
2017-08-09T19:48:15.029Z,2.23
2017-08-09T19:50:42.549Z,1.73
2017-08-09T19:53:10.105Z,1.93
2017-08-09T19:55:37.629Z,2.37
2017-08-09T19:58:05.185Z,2.00
2017-08-09T20:00:32.702Z,2.10
2017-08-09T20:03:00.277Z,2.87
2017-08-09T20:05:28.183Z,2.57
2017-08-09T20:07:55.704Z,3.10
2017-08-09T20:10:23.256Z,3.50
2017-08-09T20:12:50.781Z,1.93
2017-08-09T20:15:18.335Z,1.90
2017-08-09T20:17:45.861Z,2.50
2017-08-09T20:20:13.407Z,2.20
2017-08-09T20:22:40.917Z,1.80
2017-08-09T20:25:08.465Z,2.10
2017-08-09T20:27:36.022Z,2.20
2017-08-09T20:30:03.604Z,2.20
2017-08-09T20:32:31.127Z,3.43
2017-08-09T20:34:58.689Z,2.57
2017-08-09T20:37:26.229Z,4.10
2017-08-09T20:39:53.801Z,3.80
2017-08-09T20:42:21.333Z,3.20
2017-08-09T20:44:48.879Z,3.47
2017-08-09T20:47:16.426Z,3.23
2017-08-09T20:49:43.951Z,2.70
2017-08-09T20:52:11.491Z,2.80
2017-08-09T20:54:39.015Z,2.40
2017-08-09T20:57:06.568Z,2.73
2017-08-09T20:59:34.193Z,2.70
2017-08-09T21:02:01.745Z,2.30
2017-08-09T21:04:29.257Z,2.50
2017-08-09T21:06:56.809Z,3.00
2017-08-09T21:09:24.330Z,2.77
2017-08-09T21:11:51.891Z,2.83
2017-08-09T21:14:19.430Z,2.23
2017-08-09T21:16:46.980Z,2.53
2017-08-09T21:19:14.549Z,2.30
2017-08-09T21:21:42.112Z,2.50
2017-08-09T21:24:09.660Z,2.50
2017-08-09T21:26:37.209Z,2.23
2017-08-09T21:29:04.738Z,2.47
2017-08-09T21:31:33.158Z,1.97
2017-08-09T21:34:00.674Z,3.03
2017-08-09T21:36:28.188Z,2.60
2017-08-09T21:38:55.733Z,2.13
2017-08-09T21:41:23.260Z,2.30
2017-08-09T21:43:50.810Z,1.93
2017-08-09T21:46:18.365Z,1.87
2017-08-09T21:48:45.915Z,2.37
2017-08-09T21:51:13.432Z,1.70
2017-08-09T21:53:40.981Z,1.83
2017-08-09T21:56:08.502Z,2.37
2017-08-09T21:58:36.079Z,2.27
2017-08-09T22:01:03.632Z,1.80
2017-08-09T22:03:31.184Z,1.87
2017-08-09T22:05:58.727Z,1.90
2017-08-09T22:08:26.277Z,1.93
2017-08-09T22:10:53.802Z,2.27
2017-08-09T22:13:21.345Z,1.80
2017-08-09T22:15:48.865Z,1.80
2017-08-09T22:18:16.425Z,2.10
2017-08-09T22:20:43.947Z,2.13
2017-08-09T22:23:11.510Z,2.10
2017-08-09T22:25:39.026Z,1.87
2017-08-09T22:28:06.557Z,1.90
2017-08-09T22:30:34.117Z,2.10
2017-08-09T22:33:01.650Z,2.03
2017-08-09T22:35:29.282Z,2.10
2017-08-09T22:37:56.821Z,2.23
2017-08-09T22:40:24.398Z,1.90
2017-08-09T22:42:51.922Z,2.37
2017-08-09T22:45:19.470Z,2.03
2017-08-09T22:47:46.987Z,2.20
2017-08-09T22:50:14.535Z,2.07
2017-08-09T22:52:42.058Z,1.97
2017-08-09T22:55:09.618Z,1.50
2017-08-09T22:57:37.146Z,2.00
2017-08-09T23:00:04.724Z,1.53
2017-08-09T23:02:32.283Z,1.80
2017-08-09T23:04:59.824Z,1.70
2017-08-09T23:07:27.372Z,1.87
2017-08-09T23:09:54.906Z,1.63
2017-08-09T23:12:22.464Z,1.70
2017-08-09T23:14:49.997Z,2.10
2017-08-09T23:17:17.557Z,2.03
2017-08-09T23:19:45.161Z,1.53
2017-08-09T23:22:12.710Z,1.77
2017-08-09T23:24:40.228Z,1.70
2017-08-09T23:27:07.774Z,1.60
2017-08-09T23:29:35.290Z,1.93
2017-08-09T23:32:02.838Z,2.03
2017-08-09T23:34:30.354Z,1.70
2017-08-09T23:36:57.910Z,1.50
2017-08-09T23:39:25.441Z,1.73
2017-08-09T23:41:52.959Z,1.97
2017-08-09T23:44:20.522Z,1.87
2017-08-09T23:46:48.070Z,1.60
2017-08-09T23:49:15.626Z,1.77
2017-08-09T23:51:43.151Z,1.80
2017-08-09T23:54:10.709Z,1.90
2017-08-09T23:56:38.225Z,1.53
2017-08-09T23:59:05.769Z,1.77
